Time;durP1;ratioP1;P1;durP2;ratioP2;P2;SDS_P1;SDS_P2;PMS_P1;PMS_P2;Temp;Humidity;BMP_temperature;BMP_pressure;BME280_temperature;BME280_humidity;BME280_pressure;Samples;Min_cycle;Max_cycle;Signal;HPM_P1;HPM_P2
2021/09/29 00:01:47;;;;;;;6.20;4.80;;;;;;;16.70;59.72;101098.74;1821175;77;20989;-75
2021/09/29 00:04:13;;;;;;;9.03;5.30;;;;;;;16.69;59.67;101090.38;1836250;77;21013;-74
2021/09/29 00:06:40;;;;;;;5.90;4.92;;;;;;;16.68;59.65;101097.57;1828913;77;20987;-74
2021/09/29 00:09:07;;;;;;;7.15;4.90;;;;;;;16.68;59.74;101096.73;1831329;77;21014;-75
2021/09/29 00:11:33;;;;;;;6.55;4.58;;;;;;;16.66;59.74;101092.88;1827017;77;21724;-74
2021/09/29 00:14:00;;;;;;;7.05;5.25;;;;;;;16.65;59.59;101091.71;1841408;77;21017;-76
2021/09/29 00:16:28;;;;;;;5.45;4.78;;;;;;;16.65;59.63;101095.73;1842128;77;21580;-75
2021/09/29 00:18:55;;;;;;;6.85;4.75;;;;;;;16.65;59.66;101098.42;1827220;77;21453;-75
2021/09/29 00:21:21;;;;;;;8.83;4.28;;;;;;;16.64;59.60;101097.59;1829001;77;21000;-74
2021/09/29 00:23:49;;;;;;;6.47;5.00;;;;;;;16.64;59.62;101103.47;1819145;77;21021;-75
2021/09/29 00:26:15;;;;;;;6.22;4.70;;;;;;;16.63;59.63;101096.41;1825096;77;21010;-76
2021/09/29 00:28:42;;;;;;;8.53;4.12;;;;;;;16.61;59.58;101104.66;1816277;77;21523;-74
2021/09/29 00:31:23;;;;;;;6.40;4.12;;;;;;;16.60;59.56;101102.98;1817995;77;21542;-75
2021/09/29 00:33:37;;;;;;;8.15;4.45;;;;;;;16.51;59.55;101087.92;1819736;77;21001;-74
2021/09/29 00:36:04;;;;;;;5.05;4.20;;;;;;;16.59;59.45;101097.30;1827310;77;21183;-74
2021/09/29 00:38:31;;;;;;;8.48;4.28;;;;;;;16.58;59.43;101099.64;1824169;77;20971;-74
2021/09/29 00:40:58;;;;;;;5.87;4.00;;;;;;;16.56;59.41;101092.27;1826017;77;21039;-75
2021/09/29 00:43:25;;;;;;;5.45;4.03;;;;;;;16.57;59.32;101101.14;1761115;79;21117;-76
2021/09/29 00:45:53;;;;;;;5.22;3.80;;;;;;;16.56;59.34;101097.63;1788658;79;21059;-74
2021/09/29 00:48:19;;;;;;;4.87;3.50;;;;;;;16.55;59.27;101104.00;1796109;79;21142;-73
2021/09/29 00:50:48;;;;;;;7.33;4.17;;;;;;;16.54;59.26;101101.00;1763223;80;21111;-74
2021/09/29 00:53:19;;;;;;;3.77;3.35;;;;;;;16.53;59.29;101099.31;1767834;80;21612;-74
2021/09/29 00:55:45;;;;;;;5.97;3.87;;;;;;;16.52;59.15;101104.36;1768918;80;22092;-75
2021/09/29 00:58:11;;;;;;;4.47;3.50;;;;;;;16.51;59.09;101106.22;1776142;80;21143;-73
2021/09/29 01:00:38;;;;;;;3.70;3.33;;;;;;;16.51;59.09;101108.04;1767094;79;21122;-73
2021/09/29 01:03:04;;;;;;;5.17;3.55;;;;;;;16.50;59.03;101117.11;1771194;79;21028;-74
2021/09/29 01:05:31;;;;;;;3.52;3.20;;;;;;;16.50;58.89;101113.09;1781079;79;21018;-74
2021/09/29 01:08:16;;;;;;;5.70;3.70;;;;;;;16.49;58.77;101110.89;1830786;76;21005;-75
2021/09/29 01:11:09;;;;;;;3.83;3.47;;;;;;;16.49;58.75;101110.06;1841020;77;20989;-74
2021/09/29 01:14:05;;;;;;;4.35;3.20;;;;;;;16.46;58.48;101113.94;1835286;77;21821;-74
2021/09/29 01:16:35;;;;;;;4.78;3.80;;;;;;;16.44;58.46;101113.27;1813524;77;21001;-74
2021/09/29 01:19:05;;;;;;;4.83;3.52;;;;;;;16.42;58.55;101115.81;1830561;77;21049;-74
2021/09/29 01:21:37;;;;;;;4.80;3.25;;;;;;;16.41;58.57;101116.80;1826825;77;21030;-74
2021/09/29 01:24:13;;;;;;;4.85;3.60;;;;;;;16.40;58.42;101127.19;1839969;77;21057;-74
2021/09/29 01:26:41;;;;;;;3.60;3.17;;;;;;;16.39;58.47;101129.55;1834281;77;21049;-75
2021/09/29 01:29:12;;;;;;;4.15;3.33;;;;;;;16.38;58.28;101131.41;1819025;77;21089;-74
2021/09/29 01:31:38;;;;;;;4.03;3.35;;;;;;;16.38;58.17;101138.59;1801679;78;20989;-74
2021/09/29 01:34:06;;;;;;;6.97;3.33;;;;;;;16.36;58.26;101134.77;1806712;78;21049;-75
2021/09/29 01:36:33;;;;;;;5.72;3.25;;;;;;;16.35;58.36;101129.56;1802141;78;21069;-74
2021/09/29 01:39:04;;;;;;;4.22;3.83;;;;;;;16.34;58.22;101134.10;1769057;80;21167;-74
2021/09/29 01:41:31;;;;;;;4.45;3.30;;;;;;;16.34;58.18;101139.47;1764603;80;21037;-75
2021/09/29 01:44:00;;;;;;;4.60;3.80;;;;;;;16.34;58.06;101133.24;1791693;78;21342;-74
2021/09/29 01:46:28;;;;;;;6.62;3.33;;;;;;;16.32;57.96;101133.41;1814856;78;21013;-74
2021/09/29 01:49:24;;;;;;;3.77;3.30;;;;;;;16.32;57.96;101132.06;1815538;78;21060;-74
2021/09/29 01:51:51;;;;;;;4.05;3.30;;;;;;;16.30;57.91;101134.95;1810358;78;21204;-75
2021/09/29 01:54:20;;;;;;;4.53;3.40;;;;;;;16.29;57.98;101133.26;1803519;78;21025;-75
2021/09/29 01:56:48;;;;;;;4.28;3.55;;;;;;;16.28;57.79;101135.63;1805649;78;21587;-73
2021/09/29 01:59:14;;;;;;;3.77;2.80;;;;;;;16.27;57.76;101134.45;1798155;78;21042;-74
2021/09/29 02:01:41;;;;;;;4.55;3.20;;;;;;;16.26;57.72;101138.98;1782256;78;21055;-75
2021/09/29 02:04:10;;;;;;;3.40;3.00;;;;;;;16.25;57.58;101141.83;1791547;78;21129;-75
2021/09/29 02:06:52;;;;;;;4.25;3.65;;;;;;;16.24;57.55;101138.80;1807708;78;21333;-75
2021/09/29 02:09:19;;;;;;;5.08;3.05;;;;;;;16.24;57.51;101144.16;1805639;78;21034;-75
2021/09/29 02:11:46;;;;;;;4.75;3.25;;;;;;;16.23;57.59;101146.53;1800510;78;20984;-74
2021/09/29 02:14:13;;;;;;;3.72;2.60;;;;;;;16.21;57.54;101148.03;1816097;78;21496;-76
2021/09/29 02:16:39;;;;;;;3.33;2.77;;;;;;;16.21;57.47;101148.03;1807738;78;21135;-75
2021/09/29 02:19:07;;;;;;;4.90;2.98;;;;;;;16.20;57.46;101153.56;1807774;78;21035;-76
2021/09/29 02:21:37;;;;;;;5.50;3.20;;;;;;;16.20;57.44;101152.22;1801299;78;21026;-63
2021/09/29 02:24:05;;;;;;;4.92;3.30;;;;;;;16.19;57.48;101154.07;1786204;78;21548;-64
2021/09/29 02:26:35;;;;;;;3.12;2.83;;;;;;;16.19;57.39;101157.27;1800418;78;21041;-65
2021/09/29 02:29:02;;;;;;;3.55;3.02;;;;;;;16.18;57.35;101156.41;1817602;77;21541;-64
2021/09/29 02:31:28;;;;;;;3.27;2.92;;;;;;;16.18;57.29;101161.77;1823224;78;21011;-64
2021/09/29 02:33:55;;;;;;;4.17;2.98;;;;;;;16.18;57.34;101163.62;1820572;78;21049;-65
2021/09/29 02:36:21;;;;;;;5.28;3.05;;;;;;;16.18;57.28;101159.09;1823971;77;21025;-65
2021/09/29 02:38:49;;;;;;;3.33;2.80;;;;;;;16.18;57.00;101156.92;1819100;77;21046;-65
2021/09/29 02:41:16;;;;;;;4.25;2.98;;;;;;;16.18;57.02;101155.58;1825778;77;22008;-66
2021/09/29 02:43:42;;;;;;;3.67;3.30;;;;;;;16.17;57.01;101156.09;1820331;78;21017;-65
2021/09/29 02:46:08;;;;;;;3.12;2.75;;;;;;;16.16;56.99;101162.44;1825282;78;21084;-64
2021/09/29 02:48:35;;;;;;;3.25;2.95;;;;;;;16.16;56.87;101165.13;1821697;77;21013;-66
2021/09/29 02:51:02;;;;;;;3.10;2.80;;;;;;;16.14;56.84;101177.03;1806785;78;21042;-64
2021/09/29 02:53:31;;;;;;;3.40;3.10;;;;;;;16.14;56.78;101174.35;1807191;78;21134;-65
2021/09/29 02:56:00;;;;;;;5.90;2.95;;;;;;;16.12;56.77;101174.00;1828232;77;21075;-65
2021/09/29 02:58:27;;;;;;;3.90;2.70;;;;;;;16.12;56.59;101177.20;1822343;77;21029;-63
2021/09/29 03:00:54;;;;;;;3.58;2.77;;;;;;;16.11;56.67;101182.23;1822025;78;21021;-65
2021/09/29 03:03:21;;;;;;;3.58;2.72;;;;;;;16.10;56.61;101185.91;1824086;77;21006;-64
2021/09/29 03:05:48;;;;;;;3.47;2.90;;;;;;;16.09;56.59;101178.38;1829227;77;21152;-64
2021/09/29 03:08:16;;;;;;;2.83;2.60;;;;;;;16.09;56.43;101174.88;1766005;79;20975;-64
2021/09/29 03:10:44;;;;;;;3.77;2.50;;;;;;;16.08;56.43;101179.88;1819517;77;21022;-65
2021/09/29 03:13:13;;;;;;;2.90;2.42;;;;;;;16.07;56.32;101171.50;1815869;78;20977;-64
2021/09/29 03:15:41;;;;;;;3.12;2.47;;;;;;;16.06;56.42;101179.22;1824304;77;21038;-65
2021/09/29 03:18:07;;;;;;;3.12;2.83;;;;;;;16.05;56.29;101182.89;1810565;77;21475;-64
2021/09/29 03:20:34;;;;;;;2.87;2.60;;;;;;;16.06;56.24;101187.27;1818670;77;21010;-63
2021/09/29 03:23:00;;;;;;;3.22;2.45;;;;;;;16.04;56.31;101189.27;1826740;77;21066;-63
2021/09/29 03:25:26;;;;;;;3.10;2.67;;;;;;;16.03;56.19;101191.12;1825597;78;21817;-64
2021/09/29 03:27:53;;;;;;;2.80;2.42;;;;;;;16.03;56.19;101186.24;1825630;77;21050;-64
2021/09/29 03:30:20;;;;;;;3.02;2.58;;;;;;;16.02;56.21;101191.28;1814273;78;21131;-64
2021/09/29 03:32:47;;;;;;;3.70;2.50;;;;;;;16.02;56.08;101193.97;1804133;77;21071;-64
2021/09/29 03:35:13;;;;;;;4.78;2.37;;;;;;;16.01;55.90;101191.80;1811939;78;21081;-63
2021/09/29 03:37:40;;;;;;;3.47;2.42;;;;;;;16.01;56.17;101194.95;1807257;78;21548;-64
2021/09/29 03:40:09;;;;;;;2.83;2.45;;;;;;;15.99;56.05;101188.93;1817894;77;21356;-63
2021/09/29 03:42:36;;;;;;;3.05;2.58;;;;;;;15.99;55.98;101194.30;1815596;78;21096;-64
2021/09/29 03:45:04;;;;;;;4.72;2.37;;;;;;;15.99;55.96;101192.95;1754966;80;21038;-65
2021/09/29 03:47:30;;;;;;;3.33;2.70;;;;;;;15.97;55.94;101198.98;1814148;78;21034;-63
2021/09/29 03:49:57;;;;;;;3.80;2.50;;;;;;;15.96;55.74;101197.33;1815375;77;21060;-63
2021/09/29 03:52:24;;;;;;;4.28;2.75;;;;;;;15.95;55.81;101192.95;1801138;77;21026;-63
2021/09/29 03:54:50;;;;;;;2.72;2.37;;;;;;;15.95;55.82;101203.16;1806576;77;21132;-64
2021/09/29 03:57:16;;;;;;;3.20;2.85;;;;;;;15.95;55.77;101202.34;1818636;77;21065;-63
2021/09/29 03:59:43;;;;;;;5.00;3.25;;;;;;;15.94;55.82;101206.87;1816835;78;21073;-64
2021/09/29 04:02:09;;;;;;;2.90;2.70;;;;;;;15.92;55.80;101204.34;1818798;77;21599;-65
2021/09/29 04:04:37;;;;;;;4.08;2.80;;;;;;;15.92;55.65;101203.52;1820843;78;21631;-65
2021/09/29 04:07:04;;;;;;;2.95;2.52;;;;;;;15.92;55.58;101207.54;1820564;77;21075;-64
2021/09/29 04:09:30;;;;;;;2.77;2.47;;;;;;;15.91;55.59;101209.36;1816373;78;21520;-64
2021/09/29 04:11:58;;;;;;;2.87;2.58;;;;;;;15.91;55.62;101207.19;1811723;77;21571;-65
2021/09/29 04:14:24;;;;;;;4.75;2.52;;;;;;;15.90;55.70;101210.37;1811472;77;21588;-64
2021/09/29 04:16:51;;;;;;;4.85;2.87;;;;;;;15.89;55.46;101211.38;1824347;77;21026;-63
2021/09/29 04:19:19;;;;;;;2.60;2.40;;;;;;;15.88;55.39;101215.07;1815674;77;20982;-63
2021/09/29 04:21:45;;;;;;;3.00;2.70;;;;;;;15.88;55.45;101215.07;1817837;77;20998;-65
2021/09/29 04:24:11;;;;;;;2.95;2.67;;;;;;;15.88;55.51;101221.77;1820685;77;20998;-64
2021/09/29 04:26:38;;;;;;;3.17;2.87;;;;;;;15.87;55.41;101222.76;1801815;77;21060;-65
2021/09/29 04:29:05;;;;;;;3.45;2.35;;;;;;;15.86;55.41;101230.48;1806519;77;21014;-65
2021/09/29 04:31:32;;;;;;;3.30;2.50;;;;;;;15.86;55.33;101231.82;1801166;79;21181;-65
2021/09/29 04:33:58;;;;;;;3.67;2.90;;;;;;;15.86;55.26;101226.97;1799087;79;21033;-63
2021/09/29 04:36:24;;;;;;;4.30;3.55;;;;;;;15.85;55.31;101235.49;1810333;78;21014;-64
2021/09/29 04:38:51;;;;;;;4.05;3.33;;;;;;;15.85;55.33;101234.15;1789714;79;21024;-64
2021/09/29 04:41:17;;;;;;;4.40;3.90;;;;;;;15.84;55.27;101236.52;1789557;79;22105;-64
2021/09/29 04:43:43;;;;;;;3.05;2.75;;;;;;;15.84;55.28;101231.62;1799650;79;22509;-64
2021/09/29 04:46:10;;;;;;;4.05;3.40;;;;;;;15.82;55.29;101242.54;1787545;79;21521;-66
2021/09/29 04:48:36;;;;;;;2.98;2.67;;;;;;;15.82;55.22;101247.90;1787740;79;20999;-64
2021/09/29 04:51:03;;;;;;;3.35;3.05;;;;;;;15.82;55.11;101241.68;1787901;79;21050;-62
2021/09/29 04:53:30;;;;;;;4.45;3.10;;;;;;;15.83;55.16;101248.22;1804412;79;21041;-64
2021/09/29 04:55:59;;;;;;;3.55;3.22;;;;;;;15.82;55.12;101245.70;1782453;79;21436;-65
2021/09/29 04:58:24;;;;;;;4.42;3.12;;;;;;;15.81;55.15;101248.06;1787166;79;21024;-64
2021/09/29 05:00:51;;;;;;;5.25;3.20;;;;;;;15.79;55.04;101244.20;1794234;79;21053;-64
2021/09/29 05:03:20;;;;;;;5.53;3.30;;;;;;;15.78;55.01;101253.26;1782918;79;21077;-65
2021/09/29 05:05:47;;;;;;;3.98;3.20;;;;;;;15.79;54.87;101250.06;1794397;79;21482;-64
2021/09/29 05:08:23;;;;;;;3.10;2.77;;;;;;;15.79;54.78;101259.45;1790890;79;21941;-64
2021/09/29 05:11:09;;;;;;;4.62;3.60;;;;;;;15.78;54.71;101261.77;1795677;77;21037;-64
2021/09/29 05:13:36;;;;;;;3.77;3.37;;;;;;;15.78;54.85;101263.11;1750984;80;21098;-64
2021/09/29 05:16:03;;;;;;;4.40;3.50;;;;;;;15.78;54.79;101268.47;1789172;79;21038;-65
2021/09/29 05:18:31;;;;;;;4.87;2.90;;;;;;;15.77;54.84;101271.66;1791144;79;21042;-65
2021/09/29 05:20:58;;;;;;;3.77;3.35;;;;;;;15.76;54.66;101264.64;1794224;79;21170;-64
2021/09/29 05:23:24;;;;;;;4.45;3.62;;;;;;;15.77;54.64;101269.49;1792436;79;21618;-67
2021/09/29 05:25:51;;;;;;;3.60;3.30;;;;;;;15.76;54.65;101269.14;1799047;79;21076;-64
2021/09/29 05:28:22;;;;;;;4.08;3.67;;;;;;;15.77;54.77;101274.85;1795088;79;21588;-64
2021/09/29 05:30:48;;;;;;;4.45;3.87;;;;;;;15.76;54.73;101283.40;1826312;77;21525;-64
2021/09/29 05:33:15;;;;;;;5.33;3.60;;;;;;;15.76;54.54;101283.88;1840317;77;21541;-64
2021/09/29 05:35:41;;;;;;;5.00;3.65;;;;;;;15.76;54.63;101283.40;1832485;77;20979;-65
2021/09/29 05:38:07;;;;;;;7.65;4.65;;;;;;;15.76;54.66;101275.84;1839061;77;21065;-64
2021/09/29 05:40:34;;;;;;;4.37;3.75;;;;;;;15.77;54.60;101284.23;1844715;77;21029;-65
2021/09/29 05:43:00;;;;;;;5.60;4.00;;;;;;;15.76;54.57;101272.68;1843969;77;20989;-64
2021/09/29 05:45:27;;;;;;;6.05;4.03;;;;;;;15.77;54.63;101274.85;1824861;77;21099;-64
2021/09/29 05:47:53;;;;;;;3.77;3.47;;;;;;;15.77;54.53;101275.68;1827580;77;21690;-66
2021/09/29 05:50:20;;;;;;;4.95;3.58;;;;;;;15.78;54.50;101280.05;1761785;80;21051;-66
2021/09/29 05:52:46;;;;;;;3.50;3.20;;;;;;;15.80;54.36;101282.54;1826012;77;21084;-64
2021/09/29 05:55:13;;;;;;;3.52;3.20;;;;;;;15.79;54.45;101275.02;1822189;77;21470;-63
2021/09/29 05:57:40;;;;;;;4.12;3.72;;;;;;;15.81;54.30;101281.05;1829758;77;21608;-65
2021/09/29 06:00:08;;;;;;;5.40;3.83;;;;;;;15.82;54.20;101283.21;1823997;77;21112;-64
2021/09/29 06:02:40;;;;;;;4.00;3.47;;;;;;;15.83;54.19;101283.05;1820188;77;21062;-65
2021/09/29 06:05:08;;;;;;;8.10;4.25;;;;;;;15.85;54.29;101286.91;1833646;77;21525;-65
2021/09/29 06:07:34;;;;;;;5.85;3.62;;;;;;;15.85;54.30;101286.41;1833157;77;21037;-65
2021/09/29 06:10:02;;;;;;;5.08;3.50;;;;;;;15.86;54.40;101285.42;1751764;80;23316;-65
2021/09/29 06:12:29;;;;;;;3.75;3.35;;;;;;;15.87;54.41;101287.08;1829050;76;21017;-64
2021/09/29 06:14:57;;;;;;;4.00;3.60;;;;;;;15.89;54.37;101286.92;1815571;77;21390;-66
2021/09/29 06:17:24;;;;;;;8.98;4.78;;;;;;;15.90;54.42;101286.76;1827030;77;21115;-62
2021/09/29 06:19:52;;;;;;;10.68;4.70;;;;;;;15.92;56.52;101284.75;1830742;77;21096;-62
2021/09/29 06:22:19;;;;;;;9.03;4.50;;;;;;;16.09;64.61;101287.46;1819936;77;21134;-63
2021/09/29 06:24:45;;;;;;;9.75;4.85;;;;;;;16.28;63.49;101282.25;1823208;77;21017;-63
2021/09/29 06:27:12;;;;;;;6.37;4.50;;;;;;;16.36;62.49;101290.31;1816076;77;21528;-62
2021/09/29 06:29:38;;;;;;;12.28;5.17;;;;;;;16.41;61.51;101287.11;1836629;77;21516;-62
2021/09/29 06:32:06;;;;;;;9.05;5.83;;;;;;;16.44;60.75;101290.30;1826142;77;21054;-62
2021/09/29 06:34:32;;;;;;;7.03;4.28;;;;;;;16.47;59.79;101287.26;1815939;77;21132;-61
2021/09/29 06:36:59;;;;;;;6.42;4.15;;;;;;;16.52;59.04;101294.82;1833680;77;21032;-62
2021/09/29 06:39:26;;;;;;;7.80;4.65;;;;;;;16.54;58.51;101288.78;1815739;77;21064;-60
2021/09/29 06:41:53;;;;;;;9.23;4.50;;;;;;;16.57;58.56;101295.64;1826731;77;21040;-63
2021/09/29 06:44:19;;;;;;;7.25;3.98;;;;;;;16.61;58.39;101296.97;1822680;77;20993;-63
2021/09/29 06:46:45;;;;;;;9.60;3.92;;;;;;;16.64;58.36;101295.30;1822506;77;21074;-63
2021/09/29 06:49:13;;;;;;;8.63;4.53;;;;;;;16.69;58.59;101291.11;1822839;77;21056;-62
2021/09/29 06:51:39;;;;;;;10.65;5.37;;;;;;;16.72;58.23;101293.95;1822376;77;21061;-61
2021/09/29 06:54:06;;;;;;;8.05;4.60;;;;;;;16.77;57.68;101298.30;1825530;77;21093;-61
2021/09/29 06:56:34;;;;;;;5.25;4.33;;;;;;;16.80;56.77;101297.11;1825602;77;21041;-60
2021/09/29 06:59:00;;;;;;;7.62;5.05;;;;;;;16.80;56.03;101305.99;1830687;77;21077;-62
2021/09/29 07:01:26;;;;;;;8.00;5.00;;;;;;;16.81;55.35;101295.61;1842229;77;21612;-61
2021/09/29 07:03:53;;;;;;;7.28;4.33;;;;;;;16.83;54.77;101304.87;1835526;77;21466;-61
2021/09/29 07:06:19;;;;;;;6.15;4.45;;;;;;;16.84;54.17;101299.81;1841539;77;21042;-60
2021/09/29 07:08:46;;;;;;;6.67;4.60;;;;;;;16.85;53.62;101300.16;1837133;77;21026;-61
2021/09/29 07:11:16;;;;;;;10.10;5.15;;;;;;;16.86;53.22;101306.71;1831154;77;21080;-61
2021/09/29 07:13:45;;;;;;;6.15;4.12;;;;;;;16.87;52.88;101307.03;1790995;79;21042;-61
2021/09/29 07:16:14;;;;;;;4.40;4.00;;;;;;;16.90;52.58;101303.16;1760986;79;21077;-61
2021/09/29 07:18:42;;;;;;;6.20;4.58;;;;;;;16.91;52.30;101304.84;1760667;80;21010;-60
2021/09/29 07:21:09;;;;;;;5.08;4.25;;;;;;;16.94;52.01;101313.05;1770938;79;21023;-61
2021/09/29 07:23:37;;;;;;;4.85;3.42;;;;;;;16.96;51.75;101308.34;1775020;79;22024;-59
2021/09/29 07:26:03;;;;;;;5.58;4.22;;;;;;;16.96;51.43;101309.20;1784365;79;21582;-61
2021/09/29 07:28:30;;;;;;;6.60;4.03;;;;;;;16.99;51.23;101308.01;1780151;79;21026;-60
2021/09/29 07:30:56;;;;;;;5.28;4.35;;;;;;;17.01;51.03;101308.16;1798367;79;21760;-60
2021/09/29 07:33:23;;;;;;;4.30;3.20;;;;;;;17.02;50.82;101312.53;1790151;79;21446;-60
2021/09/29 07:35:50;;;;;;;4.00;3.58;;;;;;;17.06;50.63;101315.72;1786590;79;21864;-64
2021/09/29 07:38:17;;;;;;;6.65;4.22;;;;;;;17.08;50.41;101310.50;1781444;79;20995;-63
2021/09/29 07:40:44;;;;;;;9.18;3.83;;;;;;;17.10;50.10;101308.48;1795171;79;21436;-64
2021/09/29 07:43:10;;;;;;;5.97;4.10;;;;;;;17.14;49.96;101310.83;1778616;79;21030;-65
2021/09/29 07:45:38;;;;;;;4.58;3.87;;;;;;;17.16;49.73;101306.12;1761594;80;21041;-66
2021/09/29 07:48:05;;;;;;;5.55;3.90;;;;;;;17.18;49.60;101301.41;1748386;80;21061;-65
2021/09/29 07:50:31;;;;;;;5.95;3.83;;;;;;;17.21;49.50;101299.22;1754767;80;21238;-64
2021/09/29 07:52:57;;;;;;;5.25;3.75;;;;;;;17.23;49.42;101302.56;1791828;79;21541;-65
2021/09/29 07:55:24;;;;;;;7.10;4.70;;;;;;;17.26;49.28;101301.37;1774471;79;20995;-62
2021/09/29 07:57:51;;;;;;;6.65;4.12;;;;;;;17.30;49.20;101310.75;1755795;80;21057;-64
2021/09/29 08:00:19;;;;;;;5.40;3.80;;;;;;;17.33;49.00;101310.94;1771190;80;21107;-64
2021/09/29 08:02:45;;;;;;;6.22;3.62;;;;;;;17.36;48.83;101321.31;1837545;77;21034;-64
2021/09/29 08:05:14;;;;;;;4.97;3.60;;;;;;;17.39;48.67;101315.60;1842895;77;21017;-62
2021/09/29 08:07:41;;;;;;;5.85;3.50;;;;;;;17.40;48.43;101320.80;1824186;77;21030;-62
2021/09/29 08:10:09;;;;;;;5.42;3.90;;;;;;;17.42;48.22;101321.47;1827825;77;21048;-64
2021/09/29 08:12:36;;;;;;;5.30;3.62;;;;;;;17.44;47.97;101322.13;1835218;77;21521;-63
2021/09/29 08:15:09;;;;;;;4.90;3.67;;;;;;;17.45;47.75;101326.98;1817694;77;21077;-64
2021/09/29 08:17:32;;;;;;;3.65;3.35;;;;;;;17.46;47.57;101318.76;1812481;77;21034;-64
2021/09/29 08:19:59;;;;;;;5.50;3.80;;;;;;;17.46;47.31;101318.76;1829480;77;20998;-63
2021/09/29 08:22:26;;;;;;;6.65;3.55;;;;;;;17.47;47.16;101321.76;1794504;79;21045;-62
2021/09/29 08:25:11;;;;;;;6.28;3.25;;;;;;;17.49;47.04;101319.73;1774705;79;21056;-63
2021/09/29 08:27:31;;;;;;;3.85;3.05;;;;;;;17.52;46.88;101321.73;1788218;79;21019;-65
2021/09/29 08:30:12;;;;;;;5.45;2.75;;;;;;;17.53;46.62;101315.36;1773903;79;21002;-63
2021/09/29 08:37:57;;;;;;;6.55;2.55;;;;;;;17.62;45.79;101315.66;1743355;80;21553;-62
2021/09/29 08:40:22;;;;;;;2.42;2.17;;;;;;;17.64;45.58;101315.80;1762867;80;21062;-61
2021/09/29 08:43:07;;;;;;;2.80;2.45;;;;;;;17.67;45.23;101323.53;1755349;80;21098;-62
2021/09/29 08:45:35;;;;;;;6.87;2.70;;;;;;;17.70;44.91;101319.64;1779799;79;21622;-62
2021/09/29 08:49:07;;;;;;;3.52;2.47;;;;;;;17.71;44.60;101322.64;1800121;79;21030;-62
2021/09/29 08:53:32;;;;;;;3.40;2.30;;;;;;;17.74;44.32;101314.75;1769183;79;20992;-62
2021/09/29 08:55:59;;;;;;;3.12;2.50;;;;;;;17.74;44.26;101310.20;1779679;79;21022;-61
2021/09/29 09:17:37;;;;;;;2.50;1.92;;;;;;;17.83;43.57;101300.26;1723092;82;21226;-62
2021/09/29 09:20:24;;;;;;;3.70;2.47;;;;;;;17.83;43.45;101310.49;1723195;82;21518;-62
2021/09/29 09:22:55;;;;;;;3.42;2.37;;;;;;;17.84;43.33;101306.81;1742334;80;21089;-62
2021/09/29 09:25:38;;;;;;;3.77;2.20;;;;;;;17.86;43.22;101303.43;1792836;79;21075;-61
2021/09/29 09:28:14;;;;;;;3.08;2.45;;;;;;;17.90;43.21;101301.75;1747019;80;21046;-61
2021/09/29 09:30:37;;;;;;;2.47;2.27;;;;;;;17.93;43.12;101304.92;1767703;80;22089;-61
2021/09/29 09:33:04;;;;;;;3.40;2.52;;;;;;;17.96;43.00;101305.06;1779920;79;22330;-61
2021/09/29 09:35:45;;;;;;;2.37;2.17;;;;;;;17.99;42.93;101318.16;1762299;79;21576;-61
2021/09/29 09:38:24;;;;;;;3.58;2.10;;;;;;;18.01;42.75;101307.55;1761487;80;21049;-63
2021/09/29 09:41:00;;;;;;;2.85;2.00;;;;;;;18.03;42.65;101304.68;1774808;79;21013;-61
2021/09/29 09:43:29;;;;;;;3.35;2.20;;;;;;;18.06;42.52;101312.41;1777872;79;21122;-61
2021/09/29 09:45:56;;;;;;;3.42;2.12;;;;;;;18.08;42.45;101297.75;1767108;79;21690;-61
2021/09/29 09:48:26;;;;;;;2.45;2.25;;;;;;;18.16;42.50;101304.09;1789003;79;21021;-60
2021/09/29 09:51:07;;;;;;;1.92;1.80;;;;;;;18.24;42.46;101308.88;1774955;80;21580;-61
2021/09/29 09:53:35;;;;;;;2.02;1.92;;;;;;;18.35;42.42;101300.05;1777732;79;21069;-62
2021/09/29 09:56:24;;;;;;;2.95;2.00;;;;;;;18.46;42.29;101296.92;1783138;80;21161;-61
2021/09/29 09:58:52;;;;;;;2.67;2.17;;;;;;;18.57;42.02;101296.49;1771551;79;21030;-59
2021/09/29 10:01:21;;;;;;;2.20;2.00;;;;;;;18.68;41.87;101301.95;1774628;80;21546;-61
2021/09/29 10:03:48;;;;;;;3.08;1.87;;;;;;;18.76;41.74;101297.82;1777711;80;21045;-61
2021/09/29 10:06:15;;;;;;;2.70;2.00;;;;;;;18.84;41.59;101300.97;1764173;79;21049;-62
2021/09/29 10:08:45;;;;;;;2.37;2.05;;;;;;;18.91;41.47;101314.52;1778061;79;21063;-61
2021/09/29 10:11:17;;;;;;;2.08;1.85;;;;;;;18.95;41.32;101315.82;1783162;79;21105;-63
2021/09/29 10:27:53;;;;;;;2.22;1.98;;;;;;;19.09;40.99;101308.79;1836001;77;21012;-62
2021/09/29 10:30:30;;;;;;;2.22;2.02;;;;;;;19.08;40.90;101309.28;1844292;77;21040;-63
2021/09/29 10:33:04;;;;;;;4.58;1.87;;;;;;;19.08;40.87;101304.41;1821928;78;21022;-61
2021/09/29 10:36:00;;;;;;;2.52;2.33;;;;;;;19.08;40.88;101315.19;1820980;78;21797;-62
2021/09/29 10:46:16;;;;;;;2.58;2.37;;;;;;;19.04;40.67;101302.11;1801738;79;22601;-61
2021/09/29 10:49:00;;;;;;;2.55;2.12;;;;;;;18.96;40.73;101301.34;1783481;79;21035;-62
2021/09/29 10:51:59;;;;;;;2.95;2.50;;;;;;;18.95;40.67;101302.35;1774376;79;21205;-61
2021/09/29 11:28:25;;;;;;;4.80;4.20;;;;;;;18.79;40.98;101277.25;1785673;79;21048;-62
2021/09/29 11:31:35;;;;;;;4.67;3.80;;;;;;;18.83;41.02;101282.64;1769513;79;21042;-60
2021/09/29 11:33:35;;;;;;;3.95;3.52;;;;;;;18.89;41.05;101274.83;1734006;80;21123;-61
2021/09/29 11:36:12;;;;;;;4.83;3.17;;;;;;;18.93;41.03;101279.67;1747280;80;21011;-59
2021/09/29 11:48:50;;;;;;;3.52;3.22;;;;;;;18.97;40.85;101282.84;1783075;79;21112;-59
2021/09/29 12:11:47;;;;;;;4.60;4.20;;;;;;;18.68;41.09;101276.38;1760451;80;21025;-60
2021/09/29 12:14:17;;;;;;;4.30;3.90;;;;;;;18.66;41.13;101280.59;1761418;80;21219;-61
2021/09/29 12:16:43;;;;;;;4.35;3.95;;;;;;;18.64;41.15;101277.77;1762453;80;21031;-59
2021/09/29 12:19:21;;;;;;;6.22;3.30;;;;;;;18.62;41.15;101275.26;1767688;80;21061;-60
2021/09/29 12:21:57;;;;;;;4.10;3.70;;;;;;;18.62;41.18;101279.30;1750337;80;21033;-61
2021/09/29 12:24:58;;;;;;;3.60;3.30;;;;;;;18.62;41.24;101280.64;1757371;80;21049;-59
2021/09/29 12:27:32;;;;;;;4.97;3.40;;;;;;;18.65;41.24;101280.77;1742146;80;21116;-61
2021/09/29 12:29:57;;;;;;;4.35;2.90;;;;;;;18.66;41.32;101280.59;1750461;80;20991;-59
2021/09/29 12:37:40;;;;;;;3.85;3.52;;;;;;;18.69;41.26;101274.00;1755555;80;21057;-60
2021/09/29 12:40:08;;;;;;;3.55;3.17;;;;;;;18.70;41.25;101278.86;1757016;80;21128;-60
2021/09/29 12:42:39;;;;;;;5.47;4.00;;;;;;;18.71;41.29;101275.16;1750868;80;21171;-60
2021/09/29 12:45:06;;;;;;;4.78;3.92;;;;;;;18.72;41.27;101275.51;1749207;80;21058;-60
2021/09/29 12:50:00;;;;;;;4.47;3.62;;;;;;;18.73;41.27;101273.95;1744766;80;21156;-60
2021/09/29 12:52:32;;;;;;;4.90;3.80;;;;;;;18.73;41.30;101269.09;1748537;80;21092;-59
2021/09/29 12:55:00;;;;;;;4.58;4.03;;;;;;;18.73;41.33;101273.13;1756655;80;21062;-59
2021/09/29 12:57:29;;;;;;;6.03;4.28;;;;;;;18.73;41.33;101279.85;1749976;80;21037;-60
2021/09/29 12:59:57;;;;;;;5.35;3.65;;;;;;;18.72;41.37;101274.16;1748019;80;21022;-61
2021/09/29 13:02:24;;;;;;;5.10;3.60;;;;;;;18.72;41.39;101275.51;1749260;80;22042;-61
2021/09/29 13:04:51;;;;;;;4.20;3.80;;;;;;;18.66;41.42;101264.45;1750872;80;21212;-60
2021/09/29 13:07:19;;;;;;;7.37;3.83;;;;;;;18.72;41.46;101263.39;1745854;80;21035;-61
2021/09/29 13:09:46;;;;;;;6.50;3.52;;;;;;;18.72;41.51;101270.95;1749828;80;21058;-60
2021/09/29 13:12:13;;;;;;;4.03;3.62;;;;;;;18.73;41.49;101270.44;1755580;80;21054;-61
2021/09/29 13:14:39;;;;;;;5.37;3.95;;;;;;;18.72;41.51;101268.26;1752585;80;21028;-61
2021/09/29 13:17:06;;;;;;;4.35;3.95;;;;;;;18.72;41.52;101271.47;1752312;80;21190;-60
2021/09/29 13:19:44;;;;;;;3.95;3.55;;;;;;;18.71;41.53;101271.95;1743686;80;21057;-61
2021/09/29 13:22:13;;;;;;;5.65;3.72;;;;;;;18.70;41.53;101271.64;1750290;80;21067;-60
2021/09/29 13:35:15;;;;;;;5.05;4.12;;;;;;;18.69;41.62;101266.44;1775889;80;21042;-59
2021/09/29 13:37:36;;;;;;;4.95;4.17;;;;;;;18.68;41.67;101266.96;1755654;79;21066;-61
2021/09/29 13:40:04;;;;;;;7.12;4.28;;;;;;;18.66;41.67;101263.09;1707835;82;21102;-59
2021/09/29 13:42:31;;;;;;;6.37;3.95;;;;;;;18.64;41.75;101258.41;1760994;79;21101;-60
2021/09/29 13:44:58;;;;;;;5.15;4.65;;;;;;;18.63;41.77;101262.62;1757449;80;21133;-60